KENL/ENL METAR and TAF weather

Enter ICAO airport designator
Station Type Date Time Source
KENL METAR 2021/09/24 00:55 UTC NOAA

KENL 240055Z AUTO 00000KT 10SM CLR 13/10 A3004 RMK AO2 T01260095


Station Type Date Time Source
KENL Decoded METAR 2021/09/24 00:55 UTC NOAA

Centralia, Centralia Municipal Airport, IL, United States (KENL) 38-30-53N 089-05-32W
Sep 23, 2021 - 08:55 PM EDT / 2021.09.24 0055 UTC
Wind: Calm:0
Visibility: 10 mile(s):0
Sky conditions: clear
Temperature: 54.7 F (12.6 C)
Dew Point: 49.1 F (9.5 C)
Relative Humidity: 81%
Pressure (altimeter): 30.04 in. Hg (1017 hPa)
ob: KENL 240055Z AUTO 00000KT 10SM CLR 13/10 A3004 RMK AO2 T01260095
cycle: 1

Station Type Date Time Source
KENL TAF UTC NOAA

Error!

Example: see airport list